Time;durP1;ratioP1;P1;durP2;ratioP2;P2;SDS_P1;SDS_P2;PMS_P1;PMS_P2;Temp;Humidity;BMP_temperature;BMP_pressure;BME280_temperature;BME280_humidity;BME280_pressure;Samples;Min_cycle;Max_cycle;Signal;HPM_P1;HPM_P2
2022/03/27 00:01:09;;;;;;;21.90;13.40;;;21.10;29.70;;;;;;5063843;28;20076;-56
2022/03/27 00:03:36;;;;;;;25.30;13.07;;;21.00;29.80;;;;;;5067663;28;20493;-52
2022/03/27 00:06:03;;;;;;;26.55;12.77;;;21.00;29.90;;;;;;5075522;28;20707;-55
2022/03/27 00:08:30;;;;;;;25.80;13.50;;;21.00;30.00;;;;;;5067413;28;20358;-56
2022/03/27 00:13:45;;;;;;;23.40;13.90;;;20.90;30.00;;;;;;5076881;28;20131;-53
2022/03/27 00:16:12;;;;;;;22.35;13.40;;;20.80;30.00;;;;;;5067030;28;20110;-56
2022/03/27 00:18:41;;;;;;;25.45;14.23;;;20.80;30.10;;;;;;5082141;28;20072;-54
2022/03/27 00:21:08;;;;;;;22.75;12.48;;;20.80;30.30;;;;;;5074599;28;20555;-55
2022/03/27 00:23:36;;;;;;;22.33;15.15;;;20.70;30.30;;;;;;5079383;28;20068;-56
2022/03/27 00:26:05;;;;;;;28.88;13.73;;;20.70;30.40;;;;;;5062206;28;20132;-54
2022/03/27 00:28:32;;;;;;;33.58;13.55;;;20.70;30.50;;;;;;5075741;28;20068;-56
2022/03/27 00:31:00;;;;;;;24.27;12.10;;;20.70;30.60;;;;;;5080086;28;20055;-57
2022/03/27 00:33:28;;;;;;;20.42;13.05;;;20.60;30.50;;;;;;5072830;28;20827;-53
2022/03/27 00:35:55;;;;;;;23.38;13.73;;;20.60;30.60;;;;;;5067595;28;20037;-54
2022/03/27 00:38:23;;;;;;;26.13;13.90;;;20.50;30.70;;;;;;5066345;28;20105;-54
2022/03/27 00:40:51;;;;;;;29.60;13.27;;;20.50;30.70;;;;;;5071200;28;20044;-57
2022/03/27 00:43:21;;;;;;;21.33;12.60;;;20.50;30.80;;;;;;5074433;28;20132;-54
2022/03/27 00:45:48;;;;;;;27.02;13.60;;;20.50;30.90;;;;;;5068649;28;20051;-55
2022/03/27 00:48:17;;;;;;;24.70;12.30;;;20.40;30.90;;;;;;5077682;28;20044;-53
2022/03/27 00:50:45;;;;;;;17.90;9.57;;;20.40;30.90;;;;;;5073381;28;20044;-57
2022/03/27 00:53:12;;;;;;;21.80;10.35;;;20.40;31.50;;;;;;5072679;28;20059;-57
2022/03/27 00:55:39;;;;;;;14.02;9.75;;;20.50;31.90;;;;;;5074331;28;20052;-51
2022/03/27 00:58:08;;;;;;;21.65;10.32;;;20.70;32.00;;;;;;5067369;28;20048;-51
2022/03/27 01:00:55;;;;;;;18.33;9.25;;;21.00;32.10;;;;;;5078013;28;20064;-55
2022/03/27 01:03:26;;;;;;;14.80;8.82;;;21.20;31.90;;;;;;5068891;28;20040;-56
2022/03/27 01:05:57;;;;;;;18.95;8.73;;;21.40;31.90;;;;;;5066740;28;20428;-55
2022/03/27 01:11:14;;;;;;;13.80;7.95;;;21.80;31.60;;;;;;5067520;28;20572;-54
2022/03/27 01:13:48;;;;;;;14.85;9.45;;;22.00;31.50;;;;;;5075250;28;20059;-55
2022/03/27 01:16:32;;;;;;;17.13;8.95;;;22.20;31.30;;;;;;5072713;28;20040;-54
2022/03/27 01:19:01;;;;;;;12.90;8.32;;;22.40;31.20;;;;;;5063020;28;20067;-54
2022/03/27 01:21:30;;;;;;;14.60;8.68;;;22.50;31.20;;;;;;5069698;28;20045;-54
2022/03/27 01:23:58;;;;;;;10.55;6.07;;;22.60;31.10;;;;;;5071520;28;20054;-55
2022/03/27 01:26:25;;;;;;;13.60;7.18;;;22.80;31.10;;;;;;5068757;28;20043;-54
2022/03/27 01:28:52;;;;;;;9.30;6.35;;;22.90;30.90;;;;;;5069418;28;20419;-54
2022/03/27 01:31:20;;;;;;;10.70;6.78;;;23.10;30.90;;;;;;5066833;28;20581;-53
2022/03/27 01:33:47;;;;;;;11.95;7.13;;;23.20;30.70;;;;;;5068687;28;20136;-56
2022/03/27 01:36:22;;;;;;;14.18;7.43;;;23.30;30.70;;;;;;5067879;28;20040;-55
2022/03/27 01:38:51;;;;;;;9.60;7.00;;;23.50;30.60;;;;;;5065188;28;20509;-56
2022/03/27 01:41:19;;;;;;;11.48;6.55;;;23.60;30.50;;;;;;5072845;28;20040;-56
2022/03/27 01:43:47;;;;;;;6.90;5.38;;;23.70;30.40;;;;;;5077551;28;20518;-55
2022/03/27 01:46:14;;;;;;;9.80;6.93;;;23.80;30.20;;;;;;5076151;28;20055;-55
2022/03/27 01:48:41;;;;;;;8.82;5.22;;;24.00;30.10;;;;;;5066086;28;20516;-56
2022/03/27 01:51:09;;;;;;;9.00;5.80;;;24.10;30.00;;;;;;5073171;28;20063;-56
2022/03/27 01:53:38;;;;;;;7.18;5.00;;;24.20;30.00;;;;;;5078774;28;20122;-56
2022/03/27 01:56:08;;;;;;;9.48;5.13;;;24.30;30.00;;;;;;5072353;28;20774;-54
2022/03/27 01:58:38;;;;;;;7.63;4.78;;;24.40;30.00;;;;;;5070050;28;20504;-55
2022/03/27 02:01:07;;;;;;;8.77;5.05;;;24.40;29.80;;;;;;5070219;28;20150;-55
2022/03/27 02:03:34;;;;;;;7.32;5.10;;;24.50;29.80;;;;;;5069346;28;20040;-56
2022/03/27 02:06:01;;;;;;;8.15;5.35;;;24.60;29.70;;;;;;5073969;28;20056;-54
2022/03/27 02:08:29;;;;;;;6.35;4.97;;;24.60;29.70;;;;;;5077070;28;20519;-56
2022/03/27 02:10:56;;;;;;;6.43;4.20;;;24.60;29.60;;;;;;5080795;28;20145;-54
2022/03/27 02:13:24;;;;;;;7.03;4.25;;;24.80;29.60;;;;;;5072296;28;20123;-52
2022/03/27 02:15:52;;;;;;;7.72;5.43;;;24.80;29.60;;;;;;5070287;28;20059;-57
2022/03/27 02:18:20;;;;;;;11.18;5.57;;;24.90;29.50;;;;;;5071279;28;20045;-54
2022/03/27 02:20:48;;;;;;;7.55;5.32;;;24.90;29.50;;;;;;5072434;28;20119;-56
2022/03/27 02:23:15;;;;;;;8.48;6.68;;;24.90;29.40;;;;;;5074509;28;20044;-56
2022/03/27 02:25:42;;;;;;;6.32;3.75;;;25.00;29.40;;;;;;5073085;28;20131;-55
2022/03/27 02:28:10;;;;;;;8.02;5.40;;;25.00;29.40;;;;;;5075915;28;20052;-51
2022/03/27 02:30:38;;;;;;;10.73;5.00;;;25.10;29.40;;;;;;5090411;28;20044;-55
2022/03/27 02:33:05;;;;;;;5.20;4.70;;;25.10;29.40;;;;;;5076097;28;20811;-56
2022/03/27 02:35:33;;;;;;;5.13;4.20;;;25.10;29.30;;;;;;5069198;28;20048;-56
2022/03/27 02:38:04;;;;;;;7.97;4.57;;;25.20;29.40;;;;;;5069252;28;20056;-55
2022/03/27 02:40:32;;;;;;;10.38;4.70;;;25.20;29.30;;;;;;5074044;28;20043;-54
2022/03/27 02:43:00;;;;;;;7.53;5.30;;;25.20;29.30;;;;;;5072002;28;20596;-55
2022/03/27 02:45:27;;;;;;;7.63;4.32;;;25.30;29.30;;;;;;5078986;28;20059;-55
2022/03/27 02:47:56;;;;;;;10.90;5.15;;;25.30;29.30;;;;;;5069366;28;20078;-56
2022/03/27 02:50:26;;;;;;;7.28;4.68;;;25.30;29.30;;;;;;5071186;28;20056;-55
2022/03/27 02:52:53;;;;;;;6.53;4.43;;;25.30;29.30;;;;;;5071215;28;20129;-56
2022/03/27 02:55:22;;;;;;;6.47;3.90;;;25.30;29.30;;;;;;5079287;28;20047;-55
2022/03/27 02:57:50;;;;;;;6.10;4.82;;;25.30;29.30;;;;;;5071315;28;20105;-53
2022/03/27 03:00:19;;;;;;;4.65;4.25;;;25.40;29.30;;;;;;5077800;28;20036;-54
2022/03/27 03:02:46;;;;;;;7.78;4.40;;;25.40;29.30;;;;;;5066959;28;20178;-54
2022/03/27 03:05:16;;;;;;;4.95;3.78;;;25.40;29.30;;;;;;5078111;28;20092;-54
2022/03/27 03:07:44;;;;;;;5.40;4.13;;;25.40;29.30;;;;;;5069157;28;20503;-52
2022/03/27 03:10:14;;;;;;;7.00;3.75;;;25.40;29.30;;;;;;5068339;28;20040;-56
2022/03/27 03:12:41;;;;;;;5.50;4.25;;;25.40;29.30;;;;;;5067858;28;20048;-53
2022/03/27 03:15:09;;;;;;;4.60;3.97;;;25.40;29.30;;;;;;5080476;28;20044;-55
2022/03/27 03:17:37;;;;;;;3.67;3.38;;;25.40;29.30;;;;;;5068268;28;20044;-56
2022/03/27 03:20:05;;;;;;;4.80;4.07;;;25.50;29.40;;;;;;5067721;28;20128;-56
2022/03/27 03:22:35;;;;;;;4.80;3.85;;;25.50;29.40;;;;;;5066451;28;20139;-55
2022/03/27 03:25:03;;;;;;;7.97;4.80;;;25.50;29.40;;;;;;5071347;28;20130;-56
2022/03/27 03:27:31;;;;;;;5.50;4.25;;;25.50;29.30;;;;;;5067309;28;20504;-54
2022/03/27 03:29:58;;;;;;;4.50;3.35;;;25.50;29.30;;;;;;5073067;28;20760;-52
2022/03/27 03:32:25;;;;;;;6.30;4.00;;;25.50;29.30;;;;;;5077321;28;20040;-56
2022/03/27 03:34:52;;;;;;;5.60;4.05;;;25.50;29.30;;;;;;5069028;28;20502;-56
2022/03/27 03:37:19;;;;;;;5.75;4.28;;;25.50;29.40;;;;;;5066407;28;20040;-56
2022/03/27 03:39:48;;;;;;;3.45;2.88;;;25.50;29.30;;;;;;5070774;28;20033;-55
2022/03/27 03:42:15;;;;;;;6.53;3.75;;;25.50;29.30;;;;;;5069224;28;20048;-55
2022/03/27 03:44:43;;;;;;;3.88;3.38;;;25.50;29.30;;;;;;5072946;28;20072;-55
2022/03/27 03:47:11;;;;;;;3.05;2.75;;;25.50;29.40;;;;;;5070024;28;20518;-52
2022/03/27 03:49:40;;;;;;;5.32;4.18;;;25.50;29.40;;;;;;5068893;28;20048;-56
2022/03/27 03:52:08;;;;;;;4.45;3.03;;;25.50;29.40;;;;;;5078646;28;20496;-54
2022/03/27 03:54:35;;;;;;;7.45;3.00;;;25.50;29.40;;;;;;5070918;28;20040;-54
2022/03/27 03:57:05;;;;;;;3.20;2.72;;;25.50;29.40;;;;;;5072546;28;20048;-52
2022/03/27 03:59:33;;;;;;;3.10;2.75;;;25.60;29.40;;;;;;5075532;28;20086;-56
2022/03/27 04:02:01;;;;;;;7.50;3.60;;;25.50;29.40;;;;;;5078762;28;20396;-53
2022/03/27 04:04:30;;;;;;;4.65;3.00;;;25.50;29.40;;;;;;5063307;28;20048;-53
2022/03/27 04:06:57;;;;;;;4.82;4.40;;;25.60;29.50;;;;;;5075205;28;20044;-54
2022/03/27 04:09:24;;;;;;;4.15;2.30;;;25.60;29.50;;;;;;5065603;28;20177;-55
2022/03/27 04:11:52;;;;;;;7.68;3.45;;;25.50;29.50;;;;;;5070959;28;20051;-54
2022/03/27 04:14:20;;;;;;;4.82;2.85;;;25.60;29.60;;;;;;5071603;28;20076;-56
2022/03/27 04:16:49;;;;;;;3.38;3.08;;;25.50;29.50;;;;;;5072226;28;20047;-51
2022/03/27 04:19:16;;;;;;;2.83;2.63;;;25.50;29.50;;;;;;5079356;28;20052;-56
2022/03/27 04:21:44;;;;;;;3.53;3.22;;;25.50;29.50;;;;;;5068053;28;20052;-56
2022/03/27 04:24:11;;;;;;;2.47;2.03;;;25.50;29.60;;;;;;5068101;28;20044;-52
2022/03/27 04:26:40;;;;;;;3.10;2.90;;;25.50;29.60;;;;;;5069350;28;20060;-53
2022/03/27 04:29:10;;;;;;;4.32;3.83;;;25.50;29.60;;;;;;5066667;28;20067;-55
2022/03/27 04:31:40;;;;;;;3.03;2.38;;;25.50;29.60;;;;;;5081677;28;20040;-54
2022/03/27 04:34:08;;;;;;;7.88;3.20;;;25.60;29.70;;;;;;5082151;28;20512;-52
2022/03/27 04:36:36;;;;;;;3.47;3.17;;;25.60;29.70;;;;;;5067899;28;20040;-55
2022/03/27 04:39:04;;;;;;;2.70;2.13;;;25.60;29.70;;;;;;5072933;28;20048;-55
2022/03/27 04:41:31;;;;;;;5.05;2.58;;;25.60;29.70;;;;;;5073247;28;20131;-56
2022/03/27 04:43:58;;;;;;;4.20;2.22;;;25.50;29.60;;;;;;5076903;28;20036;-56
2022/03/27 04:46:25;;;;;;;4.00;2.45;;;25.50;30.00;;;;;;5077709;28;20040;-56
2022/03/27 04:48:54;;;;;;;4.60;1.85;;;25.50;29.70;;;;;;5063590;28;20052;-51
2022/03/27 04:51:21;;;;;;;2.20;1.83;;;25.50;29.70;;;;;;5075622;28;20148;-55
2022/03/27 04:53:49;;;;;;;2.92;2.72;;;25.60;29.80;;;;;;5072719;28;20523;-54
2022/03/27 04:56:16;;;;;;;5.22;3.63;;;25.50;29.70;;;;;;5069040;28;20038;-55
2022/03/27 04:58:43;;;;;;;2.22;2.05;;;25.50;30.20;;;;;;5072653;28;20083;-53
2022/03/27 05:01:11;;;;;;;2.70;2.00;;;25.60;30.20;;;;;;5078384;28;20043;-52
2022/03/27 05:03:38;;;;;;;2.70;1.92;;;25.60;29.80;;;;;;5066009;28;20069;-51
2022/03/27 05:06:07;;;;;;;2.88;2.67;;;25.50;29.80;;;;;;5074026;28;20052;-56
2022/03/27 05:08:36;;;;;;;3.78;2.60;;;25.50;29.80;;;;;;5063727;28;20215;-56
2022/03/27 05:11:03;;;;;;;3.08;2.78;;;25.60;29.90;;;;;;5073523;28;20040;-56
2022/03/27 05:13:30;;;;;;;2.83;2.38;;;25.50;29.80;;;;;;5062995;28;20049;-56
2022/03/27 05:15:57;;;;;;;3.22;2.03;;;25.60;29.90;;;;;;5069064;28;20571;-57
2022/03/27 05:18:24;;;;;;;3.30;1.98;;;25.60;29.90;;;;;;5072654;28;20045;-55
2022/03/27 05:20:51;;;;;;;2.70;1.70;;;25.60;29.90;;;;;;5074611;28;20499;-56
2022/03/27 05:23:19;;;;;;;2.88;2.10;;;25.60;29.90;;;;;;5075544;28;20116;-52
2022/03/27 05:25:49;;;;;;;2.92;2.63;;;25.60;29.90;;;;;;5070918;28;20059;-55
2022/03/27 05:28:16;;;;;;;4.28;2.25;;;25.60;30.00;;;;;;5069131;28;20091;-57
2022/03/27 05:30:44;;;;;;;2.22;2.00;;;25.60;30.00;;;;;;5079042;28;20039;-57
2022/03/27 05:33:11;;;;;;;3.10;2.40;;;25.60;30.00;;;;;;5083919;28;20039;-56
2022/03/27 05:35:40;;;;;;;3.92;1.85;;;25.60;30.00;;;;;;5081235;28;20048;-55
2022/03/27 05:38:07;;;;;;;2.03;1.73;;;25.60;30.10;;;;;;5077846;28;20044;-55
2022/03/27 05:40:35;;;;;;;1.40;1.30;;;25.60;30.30;;;;;;5077357;28;20108;-55
2022/03/27 05:43:02;;;;;;;11.18;7.18;;;25.60;30.40;;;;;;5081326;28;20040;-59
2022/03/27 05:45:30;;;;;;;7.95;3.83;;;25.60;29.10;;;;;;5073135;28;20039;-58
2022/03/27 05:47:57;;;;;;;5.40;2.85;;;25.60;29.60;;;;;;5081607;28;20126;-60
2022/03/27 05:50:25;;;;;;;7.32;3.50;;;25.50;30.00;;;;;;5075220;28;20051;-58
2022/03/27 05:52:53;;;;;;;7.80;3.10;;;25.50;30.30;;;;;;5084530;28;20058;-60
2022/03/27 05:55:20;;;;;;;3.13;2.83;;;25.40;30.60;;;;;;5078224;28;20043;-60
2022/03/27 05:57:49;;;;;;;4.97;3.42;;;25.40;30.90;;;;;;5080977;28;20044;-59
2022/03/27 06:00:20;;;;;;;6.15;3.10;;;25.40;31.20;;;;;;5081983;28;20037;-60
2022/03/27 06:02:49;;;;;;;3.42;2.42;;;25.40;31.30;;;;;;5078494;28;20044;-60
2022/03/27 06:05:17;;;;;;;4.57;3.17;;;25.40;31.50;;;;;;5082393;28;20101;-60
2022/03/27 06:07:46;;;;;;;4.53;3.13;;;25.40;31.60;;;;;;5080390;28;20040;-60
2022/03/27 06:10:14;;;;;;;3.88;2.88;;;25.40;31.70;;;;;;5079269;28;20514;-61
2022/03/27 06:12:43;;;;;;;4.18;2.03;;;25.30;31.90;;;;;;5084057;28;20113;-59
2022/03/27 06:15:12;;;;;;;4.93;2.63;;;25.30;32.10;;;;;;5080783;28;20055;-59
2022/03/27 06:17:42;;;;;;;5.20;2.60;;;25.40;32.10;;;;;;5079286;28;20155;-57
2022/03/27 06:20:12;;;;;;;3.05;1.42;;;25.30;32.10;;;;;;5079389;28;20048;-57
2022/03/27 06:22:40;;;;;;;5.45;2.47;;;25.40;32.30;;;;;;5078550;28;20040;-54
2022/03/27 06:25:10;;;;;;;2.92;2.72;;;25.40;32.40;;;;;;5077918;28;20044;-54
2022/03/27 06:27:39;;;;;;;4.63;2.10;;;25.40;32.50;;;;;;5078952;28;20047;-57
2022/03/27 06:30:07;;;;;;;3.08;1.92;;;25.40;32.60;;;;;;5082607;28;20054;-58
2022/03/27 06:32:37;;;;;;;5.07;3.13;;;25.30;32.60;;;;;;5079391;28;20459;-56
2022/03/27 06:35:06;;;;;;;2.83;2.63;;;25.40;32.70;;;;;;5078067;28;20032;-58
2022/03/27 06:37:34;;;;;;;5.43;2.47;;;25.40;32.70;;;;;;5080650;28;20112;-60
2022/03/27 06:40:02;;;;;;;4.65;3.08;;;25.40;32.60;;;;;;5079725;28;20041;-59
2022/03/27 06:42:29;;;;;;;6.07;1.92;;;25.40;32.90;;;;;;5085138;28;20046;-61
2022/03/27 06:44:56;;;;;;;8.80;2.35;;;25.40;33.20;;;;;;5072095;28;20040;-68
2022/03/27 06:47:27;;;;;;;5.40;1.88;;;25.40;33.70;;;;;;5072238;28;20076;-53
2022/03/27 06:49:57;;;;;;;3.92;1.63;;;25.40;33.70;;;;;;5073227;28;20492;-57
2022/03/27 06:52:26;;;;;;;6.47;2.08;;;25.50;33.90;;;;;;5074574;28;20086;-57
2022/03/27 06:54:54;;;;;;;5.53;2.15;;;25.40;33.60;;;;;;5070570;28;20036;-52
2022/03/27 06:57:21;;;;;;;1.15;0.70;;;25.40;33.40;;;;;;5086939;28;20097;-54
2022/03/27 07:05:20;;;;;;;4.25;1.80;;;25.40;33.20;;;;;;5078537;28;20728;-51
2022/03/27 07:07:47;;;;;;;2.72;1.38;;;25.40;33.20;;;;;;5077270;28;20797;-52
2022/03/27 07:10:14;;;;;;;1.67;1.30;;;25.30;33.10;;;;;;5067556;28;20044;-54
2022/03/27 07:12:42;;;;;;;1.40;1.10;;;25.30;33.10;;;;;;5075122;28;20076;-55
2022/03/27 07:15:10;;;;;;;1.92;1.63;;;25.30;33.10;;;;;;5078083;28;20048;-54
2022/03/27 07:17:44;;;;;;;2.92;1.38;;;25.20;33.00;;;;;;5072018;28;20071;-52
2022/03/27 07:20:12;;;;;;;3.60;1.25;;;25.30;33.00;;;;;;5071031;28;20046;-51
2022/03/27 07:22:41;;;;;;;3.22;2.40;;;25.20;32.90;;;;;;5072178;28;20068;-52
2022/03/27 07:25:09;;;;;;;1.60;1.33;;;25.20;32.90;;;;;;5071876;28;20037;-53
2022/03/27 07:27:37;;;;;;;1.52;1.25;;;25.10;32.80;;;;;;5071253;28;20106;-51
2022/03/27 07:30:05;;;;;;;1.85;1.30;;;25.10;32.90;;;;;;5072999;28;20063;-53
2022/03/27 07:32:32;;;;;;;1.58;1.15;;;25.10;32.90;;;;;;5076981;28;20051;-53
2022/03/27 07:34:59;;;;;;;2.55;1.30;;;25.00;32.80;;;;;;5071277;28;20135;-52
2022/03/27 07:37:27;;;;;;;2.13;1.25;;;25.00;32.70;;;;;;5069243;28;20032;-48
2022/03/27 07:39:56;;;;;;;1.95;1.80;;;25.00;32.70;;;;;;5071371;28;20463;-53
2022/03/27 07:42:24;;;;;;;2.33;1.42;;;24.90;32.70;;;;;;5081793;28;20055;-51
2022/03/27 07:44:51;;;;;;;1.17;1.10;;;24.90;32.70;;;;;;5072673;28;20076;-48
2022/03/27 07:47:18;;;;;;;1.27;1.17;;;24.90;32.70;;;;;;5070941;28;20032;-50
2022/03/27 07:49:45;;;;;;;1.90;1.55;;;24.90;32.80;;;;;;5072254;28;20044;-53
2022/03/27 07:52:12;;;;;;;1.98;1.40;;;24.80;32.70;;;;;;5078177;28;20113;-53
2022/03/27 07:54:41;;;;;;;1.27;1.10;;;24.80;32.70;;;;;;5072555;28;20048;-53
2022/03/27 07:57:10;;;;;;;1.30;1.20;;;24.80;32.70;;;;;;5082472;28;20869;-54
2022/03/27 07:59:37;;;;;;;1.92;1.35;;;24.80;32.80;;;;;;5076471;28;20059;-54
2022/03/27 08:02:05;;;;;;;2.63;1.33;;;24.70;32.70;;;;;;5071182;28;20044;-52
2022/03/27 08:04:34;;;;;;;2.35;1.35;;;24.70;32.70;;;;;;5070404;28;20044;-51
2022/03/27 08:07:01;;;;;;;1.65;1.27;;;24.70;32.60;;;;;;5070490;28;27013;-51
2022/03/27 08:09:28;;;;;;;2.67;1.50;;;24.70;32.70;;;;;;5079575;28;20052;-54
2022/03/27 08:11:56;;;;;;;1.50;1.40;;;24.70;32.70;;;;;;5073045;28;20040;-49
2022/03/27 08:14:28;;;;;;;2.45;1.33;;;24.70;32.70;;;;;;5076744;28;20157;-54
2022/03/27 08:16:55;;;;;;;1.83;1.42;;;24.60;32.60;;;;;;5070838;28;20094;-51
2022/03/27 08:19:22;;;;;;;1.58;1.08;;;24.60;32.60;;;;;;5068025;28;20501;-53
2022/03/27 08:21:50;;;;;;;3.83;2.20;;;24.60;32.60;;;;;;5071006;28;20094;-53
2022/03/27 08:24:17;;;;;;;2.33;1.48;;;24.60;32.60;;;;;;5073891;28;20072;-50
2022/03/27 08:27:00;;;;;;;2.60;1.25;;;24.60;32.60;;;;;;5073060;28;20499;-54
2022/03/27 08:29:30;;;;;;;5.43;1.20;;;24.60;32.50;;;;;;5070814;28;20044;-53
2022/03/27 08:32:00;;;;;;;2.38;1.13;;;24.60;32.60;;;;;;5074625;28;20064;-49
2022/03/27 08:34:33;;;;;;;2.83;1.52;;;24.60;32.60;;;;;;5081138;28;20043;-50
2022/03/27 08:37:02;;;;;;;5.05;2.60;;;24.60;32.50;;;;;;5071249;28;20041;-52
2022/03/27 08:39:30;;;;;;;2.60;1.73;;;24.60;32.50;;;;;;5075019;28;20090;-54
2022/03/27 08:41:58;;;;;;;1.70;1.30;;;24.60;32.50;;;;;;5077926;28;20049;-50
2022/03/27 08:44:28;;;;;;;6.00;1.92;;;24.60;32.40;;;;;;5074553;28;20041;-53
2022/03/27 08:46:58;;;;;;;2.35;1.13;;;24.60;32.40;;;;;;5069384;28;20043;-54
2022/03/27 08:49:34;;;;;;;3.67;1.77;;;24.60;32.40;;;;;;5068923;28;20048;-53
2022/03/27 08:52:04;;;;;;;;;;;24.60;32.40;;;;;;5074839;28;20064;-56
2022/03/27 08:54:40;;;;;;;3.88;1.45;;;24.50;32.30;;;;;;5086565;28;19923;-49
2022/03/27 08:57:09;;;;;;;;;;;24.50;32.40;;;;;;5078427;28;20045;-55
2022/03/27 08:59:39;;;;;;;2.67;1.35;;;24.50;32.30;;;;;;5075105;28;20349;-50
2022/03/27 09:02:07;;;;;;;2.85;1.35;;;24.50;32.40;;;;;;5070092;28;20047;-48
2022/03/27 09:04:37;;;;;;;3.05;2.15;;;24.50;32.30;;;;;;5067538;28;20048;-54
2022/03/27 09:07:05;;;;;;;2.72;1.40;;;24.50;32.30;;;;;;5065754;28;20055;-51
2022/03/27 09:09:35;;;;;;;2.70;1.33;;;24.50;32.20;;;;;;5082257;28;20534;-52
2022/03/27 09:12:04;;;;;;;2.60;1.70;;;24.50;32.20;;;;;;5082058;28;20032;-50
2022/03/27 09:14:33;;;;;;;1.98;1.85;;;24.50;32.10;;;;;;5078266;28;20048;-55
2022/03/27 09:17:03;;;;;;;3.60;2.20;;;24.50;32.10;;;;;;5075024;28;20761;-51
2022/03/27 09:19:35;;;;;;;4.50;2.33;;;24.50;32.10;;;;;;5067302;28;20051;-55
2022/03/27 09:22:13;;;;;;;4.65;2.40;;;24.60;32.10;;;;;;5073923;28;20045;-53
2022/03/27 09:24:41;;;;;;;3.15;2.58;;;24.60;32.10;;;;;;5071031;28;20122;-50
2022/03/27 09:27:08;;;;;;;5.32;2.78;;;24.60;32.00;;;;;;5076365;28;20040;-53
2022/03/27 09:29:54;;;;;;;4.60;2.40;;;24.60;32.00;;;;;;5068074;28;20052;-54
2022/03/27 09:32:29;;;;;;;5.47;2.65;;;24.60;31.90;;;;;;5065955;28;20044;-52
2022/03/27 09:35:02;;;;;;;5.72;2.95;;;24.60;31.90;;;;;;5077859;28;20040;-55
2022/03/27 09:37:30;;;;;;;6.47;2.72;;;24.60;31.90;;;;;;5071290;28;20042;-54
2022/03/27 09:39:58;;;;;;;6.75;2.35;;;24.60;31.80;;;;;;5066360;28;20064;-55
2022/03/27 09:42:25;;;;;;;6.28;2.63;;;24.60;31.80;;;;;;5076171;28;20044;-54
2022/03/27 09:45:11;;;;;;;2.42;2.22;;;24.60;31.70;;;;;;5070662;28;20106;-53
2022/03/27 09:47:40;;;;;;;3.95;2.30;;;24.60;31.70;;;;;;5069535;28;20040;-53
2022/03/27 09:50:07;;;;;;;2.92;2.13;;;24.60;31.70;;;;;;5072993;28;20044;-51
2022/03/27 09:52:34;;;;;;;3.13;2.28;;;24.60;31.60;;;;;;5071276;28;20579;-56
2022/03/27 09:55:05;;;;;;;2.67;1.77;;;24.60;31.60;;;;;;5066792;28;20056;-51
2022/03/27 09:57:34;;;;;;;1.77;1.48;;;24.60;31.60;;;;;;5071111;28;20151;-53
2022/03/27 10:00:14;;;;;;;3.17;1.45;;;24.70;31.60;;;;;;5075320;28;20055;-51
2022/03/27 10:02:44;;;;;;;2.47;1.63;;;24.70;31.50;;;;;;5076152;28;20063;-55
2022/03/27 10:05:12;;;;;;;2.40;2.20;;;24.70;31.50;;;;;;5068237;28;20516;-54
2022/03/27 10:07:41;;;;;;;3.10;2.42;;;24.70;31.40;;;;;;5077135;28;20067;-53
2022/03/27 10:10:11;;;;;;;2.38;2.20;;;24.70;31.40;;;;;;5069112;28;20044;-54
2022/03/27 10:12:39;;;;;;;3.83;2.00;;;24.80;31.40;;;;;;5079304;28;20048;-51
2022/03/27 10:15:11;;;;;;;2.20;1.95;;;24.70;31.30;;;;;;5079686;28;20107;-52
2022/03/27 10:17:39;;;;;;;1.98;1.58;;;24.80;31.30;;;;;;5081667;28;20051;-52
2022/03/27 10:20:10;;;;;;;1.88;1.65;;;24.80;31.30;;;;;;5082334;28;20040;-55
2022/03/27 10:22:40;;;;;;;1.67;1.58;;;24.80;31.30;;;;;;5077780;28;20048;-51
2022/03/27 10:25:09;;;;;;;2.65;1.85;;;24.80;31.20;;;;;;5072947;28;20071;-53
2022/03/27 10:27:39;;;;;;;2.40;1.38;;;24.80;31.20;;;;;;5074110;28;20048;-54
2022/03/27 10:30:08;;;;;;;1.33;1.13;;;24.90;31.20;;;;;;5076560;28;20097;-52
2022/03/27 10:32:37;;;;;;;2.20;2.10;;;24.90;31.20;;;;;;5079455;28;20051;-50
2022/03/27 10:35:35;;;;;;;2.15;2.00;;;24.90;31.20;;;;;;5072556;28;20538;-52
2022/03/27 10:38:10;;;;;;;2.42;1.63;;;24.90;31.10;;;;;;5064700;28;20068;-54
2022/03/27 10:40:46;;;;;;;3.28;1.85;;;24.90;31.00;;;;;;5072530;28;20130;-51
2022/03/27 10:43:23;;;;;;;2.97;2.50;;;24.90;31.00;;;;;;5077168;28;20129;-52
2022/03/27 10:46:12;;;;;;;1.65;1.55;;;24.90;31.00;;;;;;5071464;28;20040;-49
2022/03/27 10:48:42;;;;;;;1.95;1.85;;;25.00;30.90;;;;;;5075225;28;20131;-54
2022/03/27 10:51:11;;;;;;;2.75;2.03;;;25.00;30.90;;;;;;5079155;28;20157;-55
2022/03/27 10:53:39;;;;;;;5.38;2.83;;;25.00;31.50;;;;;;5072588;28;20049;-55
2022/03/27 10:56:06;;;;;;;5.25;2.22;;;25.00;30.80;;;;;;5074297;28;20511;-48
2022/03/27 10:58:36;;;;;;;5.82;3.33;;;25.10;30.70;;;;;;5071885;28;20119;-50
2022/03/27 11:01:06;;;;;;;5.05;2.80;;;25.10;30.60;;;;;;5074120;28;20036;-53
2022/03/27 11:03:48;;;;;;;3.55;2.70;;;25.20;30.70;;;;;;5084238;28;20063;-53
2022/03/27 11:06:24;;;;;;;4.97;2.30;;;25.20;30.60;;;;;;5077311;28;20535;-54
2022/03/27 11:08:53;;;;;;;2.78;1.90;;;25.30;30.70;;;;;;5071879;28;20067;-54
2022/03/27 11:11:50;;;;;;;4.45;2.28;;;25.30;30.60;;;;;;5075763;28;20118;-53
2022/03/27 11:14:24;;;;;;;5.82;3.15;;;25.30;30.50;;;;;;5076065;28;20036;-53
2022/03/27 11:17:13;;;;;;;6.25;1.88;;;25.40;30.60;;;;;;5075415;28;20157;-54
2022/03/27 11:19:42;;;;;;;4.57;1.80;;;25.40;30.60;;;;;;5071991;28;20040;-54
2022/03/27 11:22:43;;;;;;;1.55;1.45;;;25.40;30.60;;;;;;5072085;28;20052;-54
2022/03/27 11:25:45;;;;;;;3.65;2.33;;;25.50;30.60;;;;;;5067993;28;20041;-48
2022/03/27 11:28:13;;;;;;;1.80;1.70;;;25.50;30.60;;;;;;5068203;28;20122;-56
2022/03/27 11:31:19;;;;;;;2.78;1.38;;;25.50;30.60;;;;;;5070455;28;20045;-55
2022/03/27 11:34:17;;;;;;;3.58;1.92;;;25.60;30.60;;;;;;5060576;28;20044;-53
2022/03/27 11:36:46;;;;;;;2.17;1.33;;;25.60;30.60;;;;;;5070373;28;20059;-53
2022/03/27 11:39:31;;;;;;;5.38;1.25;;;25.60;30.60;;;;;;5076288;28;20409;-56
2022/03/27 11:42:32;;;;;;;11.90;2.35;;;25.70;30.60;;;;;;5081133;28;20039;-50
2022/03/27 11:45:16;;;;;;;3.97;1.52;;;25.70;30.60;;;;;;5071450;28;20090;-52
2022/03/27 11:47:46;;;;;;;5.57;1.60;;;25.80;30.60;;;;;;5074737;28;20072;-56
2022/03/27 11:50:29;;;;;;;2.63;1.40;;;25.80;30.60;;;;;;5072085;28;20037;-51
2022/03/27 11:52:57;;;;;;;3.20;1.60;;;25.90;30.50;;;;;;5072923;28;20032;-53
2022/03/27 11:55:28;;;;;;;2.17;2.08;;;25.90;30.50;;;;;;5070551;28;20036;-52
2022/03/27 11:57:59;;;;;;;4.90;2.47;;;26.00;30.50;;;;;;5074215;28;20131;-53
2022/03/27 12:00:34;;;;;;;2.03;1.73;;;26.00;30.40;;;;;;5087232;28;20040;-53
2022/03/27 12:03:02;;;;;;;1.77;1.67;;;26.10;30.40;;;;;;5074034;28;20040;-49
2022/03/27 12:05:34;;;;;;;2.17;0.93;;;26.10;30.40;;;;;;5070549;28;20059;-53
2022/03/27 12:08:02;;;;;;;3.17;2.15;;;26.20;30.40;;;;;;5072258;28;20040;-51
2022/03/27 12:10:38;;;;;;;1.92;1.33;;;26.20;30.30;;;;;;5067016;28;20045;-54
2022/03/27 12:13:08;;;;;;;1.35;1.23;;;26.30;30.40;;;;;;5073519;28;20041;-55
2022/03/27 12:15:39;;;;;;;3.80;1.88;;;26.30;30.30;;;;;;5072414;28;20136;-55
2022/03/27 12:18:06;;;;;;;1.55;1.35;;;26.30;30.30;;;;;;5071937;28;20131;-51
2022/03/27 12:20:44;;;;;;;2.08;1.63;;;26.40;30.30;;;;;;5073784;28;20041;-56
2022/03/27 12:23:23;;;;;;;1.60;1.40;;;26.50;30.30;;;;;;5075638;28;20032;-52
2022/03/27 12:31:52;;;;;;;4.13;1.92;;;26.50;30.20;;;;;;5013000;28;20075;-52
2022/03/27 12:34:20;;;;;;;1.75;1.42;;;26.60;30.20;;;;;;5005563;28;20049;-52
2022/03/27 12:37:13;;;;;;;1.70;1.33;;;26.60;30.10;;;;;;5011953;28;20053;-48
2022/03/27 12:39:42;;;;;;;3.25;1.90;;;26.70;30.00;;;;;;5004563;28;20058;-49
2022/03/27 12:42:35;;;;;;;2.83;1.38;;;26.70;30.00;;;;;;5009618;28;20050;-53
2022/03/27 12:45:08;;;;;;;3.15;1.67;;;26.80;30.00;;;;;;5007625;28;20230;-54
2022/03/27 12:47:37;;;;;;;2.72;1.63;;;26.80;30.00;;;;;;5012231;28;20284;-52
2022/03/27 12:50:06;;;;;;;2.38;1.45;;;26.80;30.00;;;;;;5009588;28;20045;-51
2022/03/27 12:52:34;;;;;;;1.17;1.08;;;26.90;30.10;;;;;;5012454;28;20127;-53
2022/03/27 12:55:05;;;;;;;2.40;1.33;;;26.90;30.00;;;;;;5003737;28;20038;-48
2022/03/27 12:57:56;;;;;;;1.75;1.65;;;26.90;30.00;;;;;;5004599;28;20060;-50
2022/03/27 13:00:27;;;;;;;1.70;1.60;;;27.00;30.00;;;;;;5004929;28;20162;-52
2022/03/27 13:03:14;;;;;;;1.45;1.35;;;27.00;30.00;;;;;;5006930;28;20884;-52
2022/03/27 13:05:42;;;;;;;1.95;1.23;;;27.10;30.00;;;;;;5023339;28;20045;-51
2022/03/27 13:08:10;;;;;;;1.10;1.00;;;27.10;30.00;;;;;;5064958;28;20040;-52
2022/03/27 13:10:39;;;;;;;1.38;1.27;;;27.20;30.00;;;;;;5065421;28;20567;-54
2022/03/27 13:13:08;;;;;;;2.83;2.20;;;27.20;29.90;;;;;;5076884;28;20086;-52
2022/03/27 13:15:47;;;;;;;4.85;0.93;;;27.20;29.90;;;;;;5075502;28;20044;-53
2022/03/27 13:18:17;;;;;;;1.05;0.95;;;27.30;29.90;;;;;;5078345;28;20115;-51